Time;durP1;ratioP1;P1;durP2;ratioP2;P2;SDS_P1;SDS_P2;PMS_P1;PMS_P2;Temp;Humidity;BMP_temperature;BMP_pressure;BME280_temperature;BME280_humidity;BME280_pressure;Samples;Min_cycle;Max_cycle;Signal;HPM_P1;HPM_P2
2022/07/23 00:00:42;;;;;;;;;;;;;;;;;;2106214;28;19932;-43
2022/07/23 00:01:43;;;;;;;;;;;;;;;;;;2106024;28;20030;-43
2022/07/23 00:02:44;;;;;;;;;;;;;;;;;;2106249;28;20443;-42
2022/07/23 00:03:45;;;;;;;;;;;;;;;;;;2106307;28;20229;-42
2022/07/23 00:04:46;;;;;;;;;;;;;;;;;;2106396;28;19924;-44
2022/07/23 00:05:47;;;;;;;;;;;;;;;;;;2106171;28;19924;-45
2022/07/23 00:06:47;;;;;;;;;;;;;;;;;;2106223;28;20277;-46
2022/07/23 00:07:48;;;;;;;;;;;;;;;;;;2106147;28;20008;-46
2022/07/23 00:08:49;;;;;;;;;;;;;;;;;;2106171;28;19993;-46
2022/07/23 00:09:50;;;;;;;;;;;;;;;;;;2106162;28;19924;-46
2022/07/23 00:10:51;;;;;;;;;;;;;;;;;;2106110;28;20341;-44
2022/07/23 00:11:52;;;;;;;;;;;;;;;;;;2098035;28;19935;-45
2022/07/23 00:12:52;;;;;;;;;;;;;;;;;;2097783;28;19925;-45
2022/07/23 00:13:54;;;;;;;;;;;;;;;;;;2097709;28;19979;-45
2022/07/23 00:14:55;;;;;;;;;;;;;;;;;;2097754;28;20023;-44
2022/07/23 00:15:56;;;;;;;;;;;;;;;;;;2097900;28;19974;-44
2022/07/23 00:16:57;;;;;;;;;;;;;;;;;;2097580;28;20399;-45
2022/07/23 00:17:58;;;;;;;;;;;;;;;;;;2097943;28;19964;-45
2022/07/23 00:19:01;;;;;;;;;;;;;;;;;;2097711;28;20023;-44
2022/07/23 00:20:02;;;;;;;;;;;;;;;;;;2097735;28;20396;-45
2022/07/23 00:21:03;;;;;;;;;;;;;;;;;;2097697;28;19999;-44
2022/07/23 00:22:04;;;;;;;;;;;;;;;;;;2099053;28;19924;-44
2022/07/23 00:23:05;;;;;;;;;;;;;;;;;;2099172;28;19925;-46
2022/07/23 00:24:06;;;;;;;;;;;;;;;;;;2099385;28;20292;-46
2022/07/23 00:25:07;;;;;;;;;;;;;;;;;;2099209;28;20335;-45
2022/07/23 00:26:28;;;;;;;;;;;;;;;;;;2099200;28;19924;-44
2022/07/23 00:27:29;;;;;;;;;;;;;;;;;;2099286;28;20366;-45
2022/07/23 00:28:30;;;;;;;;;;;;;;;;;;2099313;28;19931;-44
2022/07/23 00:29:30;;;;;;;;;;;;;;;;;;2099126;28;19925;-44
2022/07/23 00:30:31;;;;;;;;;;;;;;;;;;2099157;28;19935;-45
2022/07/23 00:31:32;;;;;;;;;;;;;;;;;;2099242;28;20187;-44
2022/07/23 00:32:33;;;;;;;;;;;;;;;;;;2099207;28;20292;-45
2022/07/23 00:33:56;;;;;;;;;;;;;;;;;;2099361;28;19925;-44
2022/07/23 00:34:57;;;;;;;;;;;;;;;;;;2099073;28;20073;-44
2022/07/23 00:35:58;;;;;;;;;;;;;;;;;;2099103;28;20023;-44
2022/07/23 00:36:58;;;;;;;;;;;;;;;;;;2099066;28;20019;-44
2022/07/23 00:37:59;;;;;;;;;;;;;;;;;;2099282;28;19924;-44
2022/07/23 00:39:00;;;;;;;;;;;;;;;;;;2099198;28;20317;-44
2022/07/23 00:40:01;;;;;;;;;;;;;;;;;;2099257;28;19931;-44
2022/07/23 00:41:02;;;;;;;;;;;;;;;;;;2098961;28;19979;-44
2022/07/23 00:42:03;;;;;;;;;;;;;;;;;;2102075;28;19932;-44
2022/07/23 00:43:04;;;;;;;;;;;;;;;;;;2107468;28;20433;-44
2022/07/23 00:44:05;;;;;;;;;;;;;;;;;;2107331;28;19928;-45
2022/07/23 00:45:06;;;;;;;;;;;;;;;;;;2107571;28;20269;-45
2022/07/23 00:46:07;;;;;;;;;;;;;;;;;;2107579;28;20276;-44
2022/07/23 00:47:07;;;;;;;;;;;;;;;;;;2107457;28;19931;-44
2022/07/23 00:48:08;;;;;;;;;;;;;;;;;;2107453;28;19931;-45
2022/07/23 00:49:09;;;;;;;;;;;;;;;;;;2107635;28;19924;-45
2022/07/23 00:50:10;;;;;;;;;;;;;;;;;;2107427;28;19933;-45
2022/07/23 00:51:11;;;;;;;;;;;;;;;;;;2107664;28;20085;-43
2022/07/23 00:52:12;;;;;;;;;;;;;;;;;;2107349;28;19958;-42
2022/07/23 00:53:13;;;;;;;;;;;;;;;;;;2107300;28;19924;-42
2022/07/23 00:54:14;;;;;;;;;;;;;;;;;;2107326;28;19925;-43
2022/07/23 00:55:14;;;;;;;;;;;;;;;;;;2107435;28;20430;-42
2022/07/23 00:56:15;;;;;;;;;;;;;;;;;;2107252;28;19924;-44
2022/07/23 00:57:16;;;;;;;;;;;;;;;;;;2107259;28;20065;-43
2022/07/23 00:58:17;;;;;;;;;;;;;;;;;;2107513;28;20008;-43
2022/07/23 00:59:18;;;;;;;;;;;;;;;;;;2107338;28;19935;-43
2022/07/23 01:00:19;;;;;;;;;;;;;;;;;;2107362;28;19924;-43
2022/07/23 01:01:20;;;;;;;;;;;;;;;;;;2107237;28;20383;-43
2022/07/23 01:02:21;;;;;;;;;;;;;;;;;;2107393;28;19928;-43
2022/07/23 01:03:23;;;;;;;;;;;;;;;;;;2107317;28;19947;-43
2022/07/23 01:04:24;;;;;;;;;;;;;;;;;;2107265;28;20041;-43
2022/07/23 01:05:25;;;;;;;;;;;;;;;;;;2107369;28;20329;-44
2022/07/23 01:06:25;;;;;;;;;;;;;;;;;;2107284;28;19934;-43
2022/07/23 01:07:26;;;;;;;;;;;;;;;;;;2107533;28;19971;-44
2022/07/23 01:08:27;;;;;;;;;;;;;;;;;;2107223;28;20296;-45
2022/07/23 01:09:28;;;;;;;;;;;;;;;;;;2107406;28;19924;-44
2022/07/23 01:10:32;;;;;;;;;;;;;;;;;;2107389;28;19973;-44
2022/07/23 01:11:33;;;;;;;;;;;;;;;;;;2102135;28;19998;-45
2022/07/23 01:12:34;;;;;;;;;;;;;;;;;;2099012;28;20281;-45
2022/07/23 01:13:34;;;;;;;;;;;;;;;;;;2098898;28;19924;-44
2022/07/23 01:14:35;;;;;;;;;;;;;;;;;;2098818;28;20460;-44
2022/07/23 01:15:36;;;;;;;;;;;;;;;;;;2098826;28;19925;-46
2022/07/23 01:16:37;;;;;;;;;;;;;;;;;;2099078;28;19930;-44
2022/07/23 01:17:38;;;;;;;;;;;;;;;;;;2098670;28;19925;-44
2022/07/23 01:18:39;;;;;;;;;;;;;;;;;;2099072;28;20407;-44
2022/07/23 01:19:40;;;;;;;;;;;;;;;;;;2098788;28;20378;-45
2022/07/23 01:20:41;;;;;;;;;;;;;;;;;;2098947;28;19924;-45
2022/07/23 01:21:41;;;;;;;;;;;;;;;;;;2098876;28;20279;-44
2022/07/23 01:22:42;;;;;;;;;;;;;;;;;;2098953;28;19935;-45
2022/07/23 01:23:43;;;;;;;;;;;;;;;;;;2098771;28;19960;-45
2022/07/23 01:24:44;;;;;;;;;;;;;;;;;;2098793;28;20391;-44
2022/07/23 01:25:45;;;;;;;;;;;;;;;;;;2098977;28;20393;-45
2022/07/23 01:26:46;;;;;;;;;;;;;;;;;;2098649;28;19968;-45
2022/07/23 01:27:47;;;;;;;;;;;;;;;;;;2098918;28;20011;-44
2022/07/23 01:28:48;;;;;;;;;;;;;;;;;;2098770;28;19986;-44
2022/07/23 01:29:48;;;;;;;;;;;;;;;;;;2098834;28;20019;-44
2022/07/23 01:30:49;;;;;;;;;;;;;;;;;;2098958;28;19928;-45
2022/07/23 01:31:50;;;;;;;;;;;;;;;;;;2098932;28;20320;-45
2022/07/23 01:32:51;;;;;;;;;;;;;;;;;;2098795;28;19924;-44
2022/07/23 01:33:52;;;;;;;;;;;;;;;;;;2098933;28;20011;-44
2022/07/23 01:34:53;;;;;;;;;;;;;;;;;;2098728;28;19980;-45
2022/07/23 01:35:54;;;;;;;;;;;;;;;;;;2098741;28;19924;-44
2022/07/23 01:36:54;;;;;;;;;;;;;;;;;;2098708;28;20019;-45
2022/07/23 01:37:55;;;;;;;;;;;;;;;;;;2098741;28;19924;-44
2022/07/23 01:38:56;;;;;;;;;;;;;;;;;;2098895;28;20270;-45
2022/07/23 01:39:57;;;;;;;;;;;;;;;;;;2098740;28;19931;-45
2022/07/23 01:40:58;;;;;;;;;;;;;;;;;;2098747;28;19971;-44
2022/07/23 01:41:59;;;;;;;;;;;;;;;;;;2098682;28;20352;-44
2022/07/23 01:43:00;;;;;;;;;;;;;;;;;;2098662;28;19924;-45
2022/07/23 01:44:01;;;;;;;;;;;;;;;;;;2098859;28;19935;-44
2022/07/23 01:45:02;;;;;;;;;;;;;;;;;;2099025;28;20016;-45
2022/07/23 01:46:02;;;;;;;;;;;;;;;;;;2098609;28;20397;-44
2022/07/23 01:47:03;;;;;;;;;;;;;;;;;;2098806;28;20015;-45
2022/07/23 01:48:04;;;;;;;;;;;;;;;;;;2098790;28;19978;-45
2022/07/23 01:49:10;;;;;;;;;;;;;;;;;;2098608;28;19925;-44
2022/07/23 01:50:11;;;;;;;;;;;;;;;;;;2098665;28;19950;-45
2022/07/23 01:51:12;;;;;;;;;;;;;;;;;;2098547;28;20382;-44
2022/07/23 01:52:13;;;;;;;;;;;;;;;;;;2098780;28;20007;-45
2022/07/23 01:53:14;;;;;;;;;;;;;;;;;;2098759;28;20367;-44
2022/07/23 01:54:15;;;;;;;;;;;;;;;;;;2098732;28;19925;-42
2022/07/23 01:55:16;;;;;;;;;;;;;;;;;;2098581;28;19924;-43
2022/07/23 01:56:20;;;;;;;;;;;;;;;;;;2098696;28;19960;-43
2022/07/23 01:57:21;;;;;;;;;;;;;;;;;;2098600;28;20014;-43
2022/07/23 01:58:22;;;;;;;;;;;;;;;;;;2098589;28;19974;-42
2022/07/23 01:59:23;;;;;;;;;;;;;;;;;;2098719;28;19978;-42
2022/07/23 02:00:24;;;;;;;;;;;;;;;;;;2098547;28;20269;-43
2022/07/23 02:01:25;;;;;;;;;;;;;;;;;;2098671;28;19925;-43
2022/07/23 02:02:25;;;;;;;;;;;;;;;;;;2098518;28;19931;-42
2022/07/23 02:03:27;;;;;;;;;;;;;;;;;;2098484;28;19932;-42
2022/07/23 02:04:28;;;;;;;;;;;;;;;;;;2098629;28;19924;-43
2022/07/23 02:05:30;;;;;;;;;;;;;;;;;;2098876;28;20015;-42
2022/07/23 02:06:30;;;;;;;;;;;;;;;;;;2098583;28;20213;-43
2022/07/23 02:07:31;;;;;;;;;;;;;;;;;;2098646;28;19974;-43
2022/07/23 02:08:34;;;;;;;;;;;;;;;;;;2098669;28;19924;-42
2022/07/23 02:09:35;;;;;;;;;;;;;;;;;;2098472;28;19925;-42
2022/07/23 02:10:36;;;;;;;;;;;;;;;;;;2098474;28;20361;-42
2022/07/23 02:11:37;;;;;;;;;;;;;;;;;;2098455;28;19930;-44
2022/07/23 02:12:38;;;;;;;;;;;;;;;;;;2098464;28;20023;-44
2022/07/23 02:13:39;;;;;;;;;;;;;;;;;;2098523;28;19935;-44
2022/07/23 02:14:40;;;;;;;;;;;;;;;;;;2098662;28;19931;-46
2022/07/23 02:15:41;;;;;;;;;;;;;;;;;;2098383;28;19925;-44
2022/07/23 02:16:41;;;;;;;;;;;;;;;;;;2098617;28;19931;-44
2022/07/23 02:17:42;;;;;;;;;;;;;;;;;;2098414;28;20304;-44
2022/07/23 02:18:43;;;;;;;;;;;;;;;;;;2098441;28;19956;-44
2022/07/23 02:19:44;;;;;;;;;;;;;;;;;;2098561;28;20023;-44
2022/07/23 02:20:45;;;;;;;;;;;;;;;;;;2098504;28;19925;-44
2022/07/23 02:21:46;;;;;;;;;;;;;;;;;;2098449;28;20389;-44
2022/07/23 02:22:47;;;;;;;;;;;;;;;;;;2098468;28;19964;-44
2022/07/23 02:23:48;;;;;;;;;;;;;;;;;;2098519;28;20023;-44
2022/07/23 02:24:49;;;;;;;;;;;;;;;;;;2098366;28;19931;-45
2022/07/23 02:25:50;;;;;;;;;;;;;;;;;;2098563;28;20155;-44
2022/07/23 02:26:51;;;;;;;;;;;;;;;;;;2098315;28;20019;-45
2022/07/23 02:27:51;;;;;;;;;;;;;;;;;;2098381;28;19936;-44
2022/07/23 02:28:53;;;;;;;;;;;;;;;;;;2098442;28;19932;-44
2022/07/23 02:29:53;;;;;;;;;;;;;;;;;;2098380;28;20373;-45
2022/07/23 02:30:54;;;;;;;;;;;;;;;;;;2098737;28;19971;-42
2022/07/23 02:31:55;;;;;;;;;;;;;;;;;;2098297;28;19932;-42
2022/07/23 02:32:56;;;;;;;;;;;;;;;;;;2098411;28;20365;-42
2022/07/23 02:33:57;;;;;;;;;;;;;;;;;;2098294;28;20026;-43
2022/07/23 02:34:58;;;;;;;;;;;;;;;;;;2104734;28;20462;-42
2022/07/23 02:35:58;;;;;;;;;;;;;;;;;;2106712;28;20015;-42
2022/07/23 02:36:59;;;;;;;;;;;;;;;;;;2107103;28;20019;-44
2022/07/23 02:38:00;;;;;;;;;;;;;;;;;;2106835;28;19977;-44
2022/07/23 02:39:01;;;;;;;;;;;;;;;;;;2106829;28;20343;-44
2022/07/23 02:40:02;;;;;;;;;;;;;;;;;;2106828;28;19973;-45
2022/07/23 02:41:03;;;;;;;;;;;;;;;;;;2106568;28;19924;-45
2022/07/23 02:42:04;;;;;;;;;;;;;;;;;;2106779;28;19931;-44
2022/07/23 02:43:05;;;;;;;;;;;;;;;;;;2106706;28;19924;-44
2022/07/23 02:44:06;;;;;;;;;;;;;;;;;;2106180;28;20471;-44
2022/07/23 02:45:07;;;;;;;;;;;;;;;;;;2106681;28;19924;-45
2022/07/23 02:46:08;;;;;;;;;;;;;;;;;;2106622;28;20449;-44
2022/07/23 02:47:09;;;;;;;;;;;;;;;;;;2106825;28;19931;-44
2022/07/23 02:48:12;;;;;;;;;;;;;;;;;;2106630;28;20007;-43
2022/07/23 02:49:13;;;;;;;;;;;;;;;;;;2106702;28;19928;-43
2022/07/23 02:50:14;;;;;;;;;;;;;;;;;;2106626;28;20381;-43
2022/07/23 02:51:15;;;;;;;;;;;;;;;;;;2106762;28;19972;-43
2022/07/23 02:52:15;;;;;;;;;;;;;;;;;;2106892;28;19924;-44
2022/07/23 02:53:16;;;;;;;;;;;;;;;;;;2106706;28;19966;-45
2022/07/23 02:54:17;;;;;;;;;;;;;;;;;;2106654;28;19924;-44
2022/07/23 02:55:18;;;;;;;;;;;;;;;;;;2106564;28;20335;-45
2022/07/23 02:56:20;;;;;;;;;;;;;;;;;;2106587;28;20023;-44
2022/07/23 02:57:21;;;;;;;;;;;;;;;;;;2106666;28;19935;-44
2022/07/23 02:58:22;;;;;;;;;;;;;;;;;;2106562;28;19977;-47
2022/07/23 02:59:23;;;;;;;;;;;;;;;;;;2106620;28;20487;-45
2022/07/23 03:00:23;;;;;;;;;;;;;;;;;;2106725;28;19970;-44
2022/07/23 03:01:24;;;;;;;;;;;;;;;;;;2106571;28;19930;-45
2022/07/23 03:02:25;;;;;;;;;;;;;;;;;;2106664;28;19928;-45
2022/07/23 03:03:26;;;;;;;;;;;;;;;;;;2106589;28;19924;-44
2022/07/23 03:04:30;;;;;;;;;;;;;;;;;;2106685;28;19924;-45
2022/07/23 03:05:31;;;;;;;;;;;;;;;;;;2106484;28;19928;-44
2022/07/23 03:06:32;;;;;;;;;;;;;;;;;;2106628;28;19928;-45
2022/07/23 03:07:33;;;;;;;;;;;;;;;;;;2106549;28;19931;-44
2022/07/23 03:08:33;;;;;;;;;;;;;;;;;;2106468;28;20019;-45
2022/07/23 03:09:34;;;;;;;;;;;;;;;;;;2106539;28;19950;-45
2022/07/23 03:10:35;;;;;;;;;;;;;;;;;;2106608;28;19924;-44
2022/07/23 03:11:36;;;;;;;;;;;;;;;;;;2100686;28;19956;-44
2022/07/23 03:12:37;;;;;;;;;;;;;;;;;;2098163;28;20500;-45
2022/07/23 03:13:38;;;;;;;;;;;;;;;;;;2098090;28;19924;-44
2022/07/23 03:14:39;;;;;;;;;;;;;;;;;;2098120;28;19970;-45
2022/07/23 03:15:40;;;;;;;;;;;;;;;;;;2098156;28;19924;-44
2022/07/23 03:16:40;;;;;;;;;;;;;;;;;;2097943;28;19932;-45
2022/07/23 03:17:41;;;;;;;;;;;;;;;;;;2097997;28;20327;-44
2022/07/23 03:18:42;;;;;;;;;;;;;;;;;;2098178;28;19975;-44
2022/07/23 03:19:43;;;;;;;;;;;;;;;;;;2098130;28;19946;-44
2022/07/23 03:20:44;;;;;;;;;;;;;;;;;;2098027;28;20259;-45
2022/07/23 03:21:45;;;;;;;;;;;;;;;;;;2098143;28;19932;-45
2022/07/23 03:22:46;;;;;;;;;;;;;;;;;;2098094;28;19924;-44
2022/07/23 03:23:47;;;;;;;;;;;;;;;;;;2098030;28;19991;-44
2022/07/23 03:24:54;;;;;;;;;;;;;;;;;;2098354;28;20019;-45
2022/07/23 03:25:55;;;;;;;;;;;;;;;;;;2097902;28;20015;-45
2022/07/23 03:26:55;;;;;;;;;;;;;;;;;;2098056;28;20008;-45
2022/07/23 03:27:56;;;;;;;;;;;;;;;;;;2098031;28;19924;-45
2022/07/23 03:28:57;;;;;;;;;;;;;;;;;;2097886;28;20347;-45
2022/07/23 03:29:58;;;;;;;;;;;;;;;;;;2098253;28;19924;-44
2022/07/23 03:30:59;;;;;;;;;;;;;;;;;;2102372;28;20300;-45
2022/07/23 03:32:01;;;;;;;;;;;;;;;;;;2106207;28;19931;-44
2022/07/23 03:33:02;;;;;;;;;;;;;;;;;;2106495;28;20042;-45
2022/07/23 03:34:03;;;;;;;;;;;;;;;;;;2106473;28;19980;-44
2022/07/23 03:35:04;;;;;;;;;;;;;;;;;;2106247;28;20456;-45
2022/07/23 03:36:05;;;;;;;;;;;;;;;;;;2106388;28;19931;-45
2022/07/23 03:37:06;;;;;;;;;;;;;;;;;;2106233;28;20293;-45
2022/07/23 03:38:06;;;;;;;;;;;;;;;;;;2106387;28;20571;-44
2022/07/23 03:39:07;;;;;;;;;;;;;;;;;;2106442;28;19924;-43
2022/07/23 03:40:13;;;;;;;;;;;;;;;;;;2106504;28;20027;-43
2022/07/23 03:41:14;;;;;;;;;;;;;;;;;;2106356;28;20003;-44
2022/07/23 03:42:14;;;;;;;;;;;;;;;;;;2106299;28;20243;-43
2022/07/23 03:43:15;;;;;;;;;;;;;;;;;;2106331;28;19931;-43
2022/07/23 03:44:16;;;;;;;;;;;;;;;;;;2106550;28;20358;-44
2022/07/23 03:45:17;;;;;;;;;;;;;;;;;;2106524;28;20025;-44
2022/07/23 03:46:18;;;;;;;;;;;;;;;;;;2106220;28;19939;-44
2022/07/23 03:47:21;;;;;;;;;;;;;;;;;;2106294;28;19931;-43
2022/07/23 03:48:22;;;;;;;;;;;;;;;;;;2106343;28;20344;-43
2022/07/23 03:49:23;;;;;;;;;;;;;;;;;;2106395;28;19966;-43
2022/07/23 03:50:24;;;;;;;;;;;;;;;;;;2106280;28;19924;-44
2022/07/23 03:51:25;;;;;;;;;;;;;;;;;;2106307;28;19931;-44
2022/07/23 03:52:25;;;;;;;;;;;;;;;;;;2106606;28;20014;-43
2022/07/23 03:53:26;;;;;;;;;;;;;;;;;;2106123;28;19974;-43
2022/07/23 03:54:27;;;;;;;;;;;;;;;;;;2106356;28;19931;-43
2022/07/23 03:55:28;;;;;;;;;;;;;;;;;;2106025;28;19924;-43
2022/07/23 03:56:29;;;;;;;;;;;;;;;;;;2105192;28;19939;-43
2022/07/23 03:57:30;;;;;;;;;;;;;;;;;;2106170;28;19968;-44
2022/07/23 03:58:31;;;;;;;;;;;;;;;;;;2106216;28;19924;-44
2022/07/23 03:59:31;;;;;;;;;;;;;;;;;;2106150;28;19962;-43
2022/07/23 04:00:32;;;;;;;;;;;;;;;;;;2106215;28;20015;-43
2022/07/23 04:01:33;;;;;;;;;;;;;;;;;;2106118;28;20384;-44
2022/07/23 04:02:34;;;;;;;;;;;;;;;;;;2106343;28;20381;-44
2022/07/23 04:03:36;;;;;;;;;;;;;;;;;;2106247;28;20376;-43
2022/07/23 04:04:37;;;;;;;;;;;;;;;;;;2106252;28;20003;-43
2022/07/23 04:05:38;;;;;;;;;;;;;;;;;;2106253;28;19931;-43
2022/07/23 04:06:39;;;;;;;;;;;;;;;;;;2106044;28;19924;-44
2022/07/23 04:07:40;;;;;;;;;;;;;;;;;;2106302;28;19928;-43
2022/07/23 04:08:41;;;;;;;;;;;;;;;;;;2106326;28;19924;-44
2022/07/23 04:09:42;;;;;;;;;;;;;;;;;;2106306;28;19931;-43
2022/07/23 04:10:46;;;;;;;;;;;;;;;;;;2106153;28;19924;-45
2022/07/23 04:11:47;;;;;;;;;;;;;;;;;;2098856;28;19924;-44
2022/07/23 04:12:48;;;;;;;;;;;;;;;;;;2097786;28;20332;-43
2022/07/23 04:13:49;;;;;;;;;;;;;;;;;;2097802;28;19954;-43
2022/07/23 04:14:50;;;;;;;;;;;;;;;;;;2097635;28;20652;-44
2022/07/23 04:15:51;;;;;;;;;;;;;;;;;;2097801;28;19924;-44
2022/07/23 04:16:52;;;;;;;;;;;;;;;;;;2097818;28;19964;-44
2022/07/23 04:17:53;;;;;;;;;;;;;;;;;;2097764;28;19981;-44
2022/07/23 04:18:53;;;;;;;;;;;;;;;;;;2097947;28;19931;-44
2022/07/23 04:19:54;;;;;;;;;;;;;;;;;;2097885;28;19931;-44
2022/07/23 04:20:55;;;;;;;;;;;;;;;;;;2097962;28;20039;-44
2022/07/23 04:21:56;;;;;;;;;;;;;;;;;;2097600;28;20036;-44
2022/07/23 04:22:57;;;;;;;;;;;;;;;;;;2097794;28;20305;-45
2022/07/23 04:23:58;;;;;;;;;;;;;;;;;;2097660;28;19925;-44
2022/07/23 04:24:58;;;;;;;;;;;;;;;;;;2097753;28;19931;-43
2022/07/23 04:25:59;;;;;;;;;;;;;;;;;;2097659;28;19924;-44
2022/07/23 04:27:00;;;;;;;;;;;;;;;;;;2100176;28;19925;-45
2022/07/23 04:28:01;;;;;;;;;;;;;;;;;;2106120;28;19935;-44
2022/07/23 04:29:02;;;;;;;;;;;;;;;;;;2106106;28;20506;-43
2022/07/23 04:30:04;;;;;;;;;;;;;;;;;;2106105;28;19951;-44
2022/07/23 04:31:04;;;;;;;;;;;;;;;;;;2105961;28;19928;-44
2022/07/23 04:32:06;;;;;;;;;;;;;;;;;;2106115;28;20325;-44
2022/07/23 04:33:07;;;;;;;;;;;;;;;;;;2105971;28;20300;-46
2022/07/23 04:34:08;;;;;;;;;;;;;;;;;;2106035;28;19936;-44
2022/07/23 04:35:09;;;;;;;;;;;;;;;;;;2106107;28;20015;-44
2022/07/23 04:36:10;;;;;;;;;;;;;;;;;;2106017;28;20288;-45
2022/07/23 04:37:11;;;;;;;;;;;;;;;;;;2106127;28;19924;-45
2022/07/23 04:38:12;;;;;;;;;;;;;;;;;;2106117;28;19971;-43
2022/07/23 04:39:12;;;;;;;;;;;;;;;;;;2106135;28;19974;-43
2022/07/23 04:40:13;;;;;;;;;;;;;;;;;;2105961;28;19931;-43
2022/07/23 04:41:14;;;;;;;;;;;;;;;;;;2105953;28;20349;-44
2022/07/23 04:42:15;;;;;;;;;;;;;;;;;;2106151;28;19970;-43
2022/07/23 04:43:16;;;;;;;;;;;;;;;;;;2105930;28;19931;-43
2022/07/23 04:44:17;;;;;;;;;;;;;;;;;;2106077;28;20458;-43
2022/07/23 04:45:17;;;;;;;;;;;;;;;;;;2105929;28;19982;-43
2022/07/23 04:46:18;;;;;;;;;;;;;;;;;;2105974;28;19943;-44
2022/07/23 04:47:19;;;;;;;;;;;;;;;;;;2105937;28;20389;-43
2022/07/23 04:48:20;;;;;;;;;;;;;;;;;;2105971;28;19928;-43
2022/07/23 04:49:21;;;;;;;;;;;;;;;;;;2106009;28;20406;-44
2022/07/23 04:50:22;;;;;;;;;;;;;;;;;;2106059;28;19968;-44
2022/07/23 04:51:23;;;;;;;;;;;;;;;;;;2105777;28;19924;-43
2022/07/23 04:52:24;;;;;;;;;;;;;;;;;;2106085;28;20003;-43
2022/07/23 04:53:24;;;;;;;;;;;;;;;;;;2106203;28;19963;-43
2022/07/23 04:54:25;;;;;;;;;;;;;;;;;;2104938;28;20394;-45
2022/07/23 04:55:26;;;;;;;;;;;;;;;;;;2105414;28;20015;-44
2022/07/23 04:56:27;;;;;;;;;;;;;;;;;;2105087;28;20270;-43
2022/07/23 04:57:28;;;;;;;;;;;;;;;;;;2104932;28;19970;-43
2022/07/23 04:58:29;;;;;;;;;;;;;;;;;;2105341;28;20018;-43
2022/07/23 04:59:30;;;;;;;;;;;;;;;;;;2105400;28;20010;-45
2022/07/23 05:00:31;;;;;;;;;;;;;;;;;;2105212;28;20360;-43
2022/07/23 05:01:31;;;;;;;;;;;;;;;;;;2105733;28;19928;-45
2022/07/23 05:02:32;;;;;;;;;;;;;;;;;;2105870;28;19942;-45
2022/07/23 05:03:33;;;;;;;;;;;;;;;;;;2105890;28;19924;-43
2022/07/23 05:04:34;;;;;;;;;;;;;;;;;;2105946;28;19946;-43
2022/07/23 05:05:36;;;;;;;;;;;;;;;;;;2105746;28;19990;-43
2022/07/23 05:06:37;;;;;;;;;;;;;;;;;;2105688;28;20402;-45
2022/07/23 05:07:37;;;;;;;;;;;;;;;;;;2106548;28;19928;-43
2022/07/23 05:08:38;;;;;;;;;;;;;;;;;;2107470;28;20292;-45
2022/07/23 05:09:39;;;;;;;;;;;;;;;;;;2107359;28;20336;-45
2022/07/23 05:10:40;;;;;;;;;;;;;;;;;;2107459;28;19931;-43
2022/07/23 05:11:41;;;;;;;;;;;;;;;;;;2106876;28;20008;-43
2022/07/23 05:12:42;;;;;;;;;;;;;;;;;;2107356;28;19973;-44
2022/07/23 05:13:42;;;;;;;;;;;;;;;;;;2107328;28;19982;-43
2022/07/23 05:14:43;;;;;;;;;;;;;;;;;;2107355;28;19924;-45
2022/07/23 05:15:44;;;;;;;;;;;;;;;;;;2107221;28;19924;-44
2022/07/23 05:16:45;;;;;;;;;;;;;;;;;;2107260;28;19924;-43
2022/07/23 05:17:46;;;;;;;;;;;;;;;;;;2107038;28;19924;-44
2022/07/23 05:18:47;;;;;;;;;;;;;;;;;;2107308;28;19978;-43
2022/07/23 05:19:48;;;;;;;;;;;;;;;;;;2107287;28;19955;-45
2022/07/23 05:20:49;;;;;;;;;;;;;;;;;;2107069;28;19928;-45
2022/07/23 05:21:50;;;;;;;;;;;;;;;;;;2107192;28;20004;-43
2022/07/23 05:22:51;;;;;;;;;;;;;;;;;;2107292;28;19931;-43
2022/07/23 05:23:52;;;;;;;;;;;;;;;;;;2107073;28;20293;-43
2022/07/23 05:24:52;;;;;;;;;;;;;;;;;;2106987;28;19924;-43
2022/07/23 05:25:53;;;;;;;;;;;;;;;;;;2107352;28;20020;-45
2022/07/23 05:26:54;;;;;;;;;;;;;;;;;;2107180;28;19959;-45
2022/07/23 05:27:55;;;;;;;;;;;;;;;;;;2107120;28;20407;-45
2022/07/23 05:28:56;;;;;;;;;;;;;;;;;;2107249;28;19924;-43
2022/07/23 05:29:57;;;;;;;;;;;;;;;;;;2107188;28;19924;-43
2022/07/23 05:30:57;;;;;;;;;;;;;;;;;;2107277;28;20006;-43
2022/07/23 05:31:59;;;;;;;;;;;;;;;;;;2107271;28;19924;-43
2022/07/23 05:33:00;;;;;;;;;;;;;;;;;;2107281;28;20018;-43
2022/07/23 05:34:01;;;;;;;;;;;;;;;;;;2107099;28;19925;-46
2022/07/23 05:35:01;;;;;;;;;;;;;;;;;;2107225;28;20061;-43
2022/07/23 05:36:02;;;;;;;;;;;;;;;;;;2107254;28;19928;-43
2022/07/23 05:37:03;;;;;;;;;;;;;;;;;;2106939;28;19927;-43
2022/07/23 05:38:04;;;;;;;;;;;;;;;;;;2106898;28;19924;-44
2022/07/23 05:39:05;;;;;;;;;;;;;;;;;;2107052;28;19969;-43
2022/07/23 05:40:07;;;;;;;;;;;;;;;;;;2107045;28;20338;-43
2022/07/23 05:41:08;;;;;;;;;;;;;;;;;;2106986;28;19959;-45
2022/07/23 05:42:09;;;;;;;;;;;;;;;;;;2106279;28;19924;-44
2022/07/23 05:43:09;;;;;;;;;;;;;;;;;;2107072;28;19931;-43
2022/07/23 05:44:10;;;;;;;;;;;;;;;;;;2107073;28;20269;-43
2022/07/23 05:45:11;;;;;;;;;;;;;;;;;;2107132;28;19924;-46
2022/07/23 05:46:12;;;;;;;;;;;;;;;;;;2106957;28;20296;-43
2022/07/23 05:47:13;;;;;;;;;;;;;;;;;;2107210;28;19928;-43
2022/07/23 05:48:14;;;;;;;;;;;;;;;;;;2107067;28;19947;-43
2022/07/23 05:49:14;;;;;;;;;;;;;;;;;;2107019;28;19946;-43
2022/07/23 05:50:15;;;;;;;;;;;;;;;;;;2106965;28;19924;-43
2022/07/23 05:51:16;;;;;;;;;;;;;;;;;;2106964;28;20304;-43
2022/07/23 05:52:17;;;;;;;;;;;;;;;;;;2106945;28;19925;-43
2022/07/23 05:53:18;;;;;;;;;;;;;;;;;;2106978;28;19928;-45
2022/07/23 05:54:19;;;;;;;;;;;;;;;;;;2106939;28;20037;-47
2022/07/23 05:55:20;;;;;;;;;;;;;;;;;;2107032;28;19924;-45
2022/07/23 05:56:21;;;;;;;;;;;;;;;;;;2106898;28;20411;-44
2022/07/23 05:57:21;;;;;;;;;;;;;;;;;;2107035;28;20314;-45
2022/07/23 05:58:25;;;;;;;;;;;;;;;;;;2106879;28;20232;-46
2022/07/23 05:59:26;;;;;;;;;;;;;;;;;;2107143;28;20019;-45
2022/07/23 06:00:27;;;;;;;;;;;;;;;;;;2106960;28;19924;-43
2022/07/23 06:01:28;;;;;;;;;;;;;;;;;;2106789;28;19935;-45
2022/07/23 06:02:29;;;;;;;;;;;;;;;;;;2106903;28;19947;-46
2022/07/23 06:03:30;;;;;;;;;;;;;;;;;;2106904;28;20019;-45
2022/07/23 06:04:31;;;;;;;;;;;;;;;;;;2107006;28;19925;-43
2022/07/23 06:05:32;;;;;;;;;;;;;;;;;;2106944;28;19935;-44
2022/07/23 06:06:32;;;;;;;;;;;;;;;;;;2106957;28;20026;-46
2022/07/23 06:07:34;;;;;;;;;;;;;;;;;;2106740;28;20373;-43
2022/07/23 06:08:34;;;;;;;;;;;;;;;;;;2107020;28;20034;-43
2022/07/23 06:09:35;;;;;;;;;;;;;;;;;;2106848;28;19924;-44
2022/07/23 06:10:36;;;;;;;;;;;;;;;;;;2106851;28;20011;-47
2022/07/23 06:11:37;;;;;;;;;;;;;;;;;;2106628;28;19990;-44
2022/07/23 06:12:38;;;;;;;;;;;;;;;;;;2106855;28;20424;-45
2022/07/23 06:13:39;;;;;;;;;;;;;;;;;;2106977;28;19924;-45
2022/07/23 06:14:39;;;;;;;;;;;;;;;;;;2106829;28;20011;-43
2022/07/23 06:15:41;;;;;;;;;;;;;;;;;;2106920;28;20285;-44
2022/07/23 06:16:41;;;;;;;;;;;;;;;;;;2106764;28;19924;-43
2022/07/23 06:17:42;;;;;;;;;;;;;;;;;;2106768;28;19924;-44
2022/07/23 06:18:43;;;;;;;;;;;;;;;;;;2106605;28;19961;-45
2022/07/23 06:19:44;;;;;;;;;;;;;;;;;;2105960;28;19982;-43
2022/07/23 06:20:45;;;;;;;;;;;;;;;;;;2106728;28;20014;-45
2022/07/23 06:21:50;;;;;;;;;;;;;;;;;;2106805;28;19924;-45
2022/07/23 06:22:51;;;;;;;;;;;;;;;;;;2106709;28;20401;-44
2022/07/23 06:23:52;;;;;;;;;;;;;;;;;;2106660;28;20377;-43
2022/07/23 06:24:53;;;;;;;;;;;;;;;;;;2106709;28;19928;-43
2022/07/23 06:25:54;;;;;;;;;;;;;;;;;;2106662;28;19982;-43
2022/07/23 06:26:55;;;;;;;;;;;;;;;;;;2106790;28;20293;-46
2022/07/23 06:27:55;;;;;;;;;;;;;;;;;;2106700;28;20023;-44
2022/07/23 06:28:56;;;;;;;;;;;;;;;;;;2106717;28;19924;-46
2022/07/23 06:29:57;;;;;;;;;;;;;;;;;;2106720;28;19924;-43
2022/07/23 06:30:58;;;;;;;;;;;;;;;;;;2106626;28;19930;-45
2022/07/23 06:31:59;;;;;;;;;;;;;;;;;;2106522;28;19946;-46
2022/07/23 06:33:00;;;;;;;;;;;;;;;;;;2106715;28;19924;-43
2022/07/23 06:34:01;;;;;;;;;;;;;;;;;;2106919;28;19928;-45
2022/07/23 06:35:02;;;;;;;;;;;;;;;;;;2106692;28;19924;-45
2022/07/23 06:36:03;;;;;;;;;;;;;;;;;;2106643;28;20015;-43
2022/07/23 06:37:04;;;;;;;;;;;;;;;;;;2106718;28;20015;-45
2022/07/23 06:38:04;;;;;;;;;;;;;;;;;;2106612;28;19928;-43
2022/07/23 06:39:05;;;;;;;;;;;;;;;;;;2106615;28;20353;-43
2022/07/23 06:40:06;;;;;;;;;;;;;;;;;;2106756;28;19924;-45
2022/07/23 06:41:07;;;;;;;;;;;;;;;;;;2106575;28;19967;-43
2022/07/23 06:42:10;;;;;;;;;;;;;;;;;;2106693;28;20380;-44
2022/07/23 06:43:11;;;;;;;;;;;;;;;;;;2106793;28;19924;-44
2022/07/23 06:44:11;;;;;;;;;;;;;;;;;;2106526;28;20289;-44
2022/07/23 06:45:12;;;;;;;;;;;;;;;;;;2106741;28;19954;-43
2022/07/23 06:46:13;;;;;;;;;;;;;;;;;;2106599;28;20006;-47
2022/07/23 06:47:14;;;;;;;;;;;;;;;;;;2106728;28;20401;-45
2022/07/23 06:48:15;;;;;;;;;;;;;;;;;;2106613;28;19931;-43
2022/07/23 06:49:16;;;;;;;;;;;;;;;;;;2106622;28;20407;-43
2022/07/23 06:50:17;;;;;;;;;;;;;;;;;;2106680;28;19924;-43
2022/07/23 06:51:18;;;;;;;;;;;;;;;;;;2106638;28;20492;-44
2022/07/23 06:52:18;;;;;;;;;;;;;;;;;;2106728;28;19946;-45
2022/07/23 06:53:19;;;;;;;;;;;;;;;;;;2106552;28;19924;-43
2022/07/23 06:54:20;;;;;;;;;;;;;;;;;;2106718;28;19924;-45
2022/07/23 06:55:21;;;;;;;;;;;;;;;;;;2106531;28;20396;-43
2022/07/23 06:56:22;;;;;;;;;;;;;;;;;;2106524;28;19970;-45
2022/07/23 06:57:25;;;;;;;;;;;;;;;;;;2106493;28;19928;-45